Time;durP1;ratioP1;P1;durP2;ratioP2;P2;SDS_P1;SDS_P2;PMS_P1;PMS_P2;Temp;Humidity;BMP_temperature;BMP_pressure;BME280_temperature;BME280_humidity;BME280_pressure;Samples;Min_cycle;Max_cycle;Signal;HPM_P1;HPM_P2
2022/06/09 00:01:59;;;;;;;7.17;6.63;;;14.20;99.90;;;;;;5031623;28;20184;-67
2022/06/09 00:04:30;;;;;;;11.30;7.00;;;14.20;99.90;;;;;;5028202;28;20191;-67
2022/06/09 00:07:05;;;;;;;14.90;6.77;;;14.20;99.90;;;;;;5031678;28;20199;-68
2022/06/09 00:09:34;;;;;;;10.43;7.07;;;14.10;99.90;;;;;;5031895;28;20302;-68
2022/06/09 00:12:00;;;;;;;7.53;6.80;;;14.00;99.90;;;;;;5030170;28;20183;-66
2022/06/09 00:14:27;;;;;;;7.80;6.50;;;14.00;99.90;;;;;;5031545;28;20172;-66
2022/06/09 00:16:52;;;;;;;7.80;6.77;;;13.90;99.90;;;;;;5031581;28;20202;-67
2022/06/09 00:19:18;;;;;;;11.93;6.37;;;13.90;99.90;;;;;;5031583;28;20915;-67
2022/06/09 00:21:44;;;;;;;9.93;6.70;;;13.80;99.90;;;;;;5029909;28;20172;-67
2022/06/09 00:24:10;;;;;;;9.17;6.50;;;13.80;99.90;;;;;;5030998;28;20195;-67
2022/06/09 00:26:35;;;;;;;8.43;6.23;;;13.80;99.90;;;;;;5031571;28;20235;-68
2022/06/09 00:29:02;;;;;;;9.77;6.17;;;13.70;99.90;;;;;;5031601;28;20663;-68
2022/06/09 00:31:28;;;;;;;8.40;6.40;;;13.70;99.90;;;;;;5031188;28;20180;-67
2022/06/09 00:33:53;;;;;;;7.83;7.00;;;13.70;99.90;;;;;;5031218;28;20405;-67
2022/06/09 00:36:19;;;;;;;8.57;6.70;;;13.70;99.90;;;;;;5029745;28;20199;-67
2022/06/09 00:38:46;;;;;;;9.80;6.70;;;13.60;99.90;;;;;;5030293;28;20564;-67
2022/06/09 00:41:12;;;;;;;7.30;6.30;;;13.60;99.90;;;;;;5031147;28;20184;-67
2022/06/09 00:43:42;;;;;;;6.90;6.30;;;13.60;99.90;;;;;;5031155;28;20262;-68
2022/06/09 00:46:10;;;;;;;9.10;6.43;;;13.60;99.90;;;;;;5030933;28;20237;-67
2022/06/09 00:48:39;;;;;;;14.57;7.43;;;13.60;99.90;;;;;;5031460;28;20211;-67
2022/06/09 00:51:22;;;;;;;9.53;6.63;;;13.60;99.90;;;;;;5030845;28;20691;-66
2022/06/09 00:53:52;;;;;;;12.07;6.23;;;13.60;99.90;;;;;;5030909;28;20171;-66
2022/06/09 00:56:18;;;;;;;10.50;6.77;;;13.60;99.90;;;;;;5030866;28;20191;-67
2022/06/09 00:58:47;;;;;;;8.13;6.80;;;13.70;99.90;;;;;;5031353;28;20178;-66
2022/06/09 01:01:15;;;;;;;7.10;6.37;;;13.70;99.90;;;;;;5030882;28;20186;-68
2022/06/09 01:04:03;;;;;;;10.37;7.60;;;13.70;99.90;;;;;;5030928;28;20175;-67
2022/06/09 01:06:42;;;;;;;11.00;6.93;;;13.70;99.90;;;;;;5030884;28;20204;-67
2022/06/09 01:09:15;;;;;;;8.93;6.80;;;13.70;99.90;;;;;;5030975;28;20586;-67
2022/06/09 01:11:41;;;;;;;8.93;6.70;;;13.60;99.90;;;;;;5010590;28;20564;-67
2022/06/09 01:14:13;;;;;;;8.13;7.20;;;13.60;99.90;;;;;;5009730;28;20165;-67
2022/06/09 01:17:03;;;;;;;8.90;6.93;;;13.60;99.90;;;;;;5029142;28;20206;-67
2022/06/09 01:19:56;;;;;;;10.80;6.97;;;13.60;99.90;;;;;;5030416;28;20180;-67
2022/06/09 01:22:42;;;;;;;7.87;7.13;;;13.60;99.90;;;;;;5030756;28;20181;-67
2022/06/09 01:25:20;;;;;;;13.00;6.93;;;13.60;99.90;;;;;;5030171;28;20190;-67
2022/06/09 01:28:04;;;;;;;12.70;7.67;;;13.60;99.90;;;;;;5030524;28;20242;-66
2022/06/09 01:30:56;;;;;;;10.27;7.23;;;13.60;99.90;;;;;;5030845;28;20171;-66
2022/06/09 01:33:36;;;;;;;10.90;7.60;;;13.60;99.90;;;;;;5032458;28;20221;-65
2022/06/09 01:36:28;;;;;;;11.10;7.50;;;13.60;99.90;;;;;;5034475;28;20257;-67
2022/06/09 01:38:56;;;;;;;13.10;7.17;;;13.60;99.90;;;;;;5034586;28;20183;-67
2022/06/09 01:41:23;;;;;;;8.60;7.63;;;13.70;99.90;;;;;;5034324;28;20168;-67
2022/06/09 01:43:50;;;;;;;14.60;7.70;;;13.70;99.90;;;;;;5033547;28;20278;-67
2022/06/09 01:46:36;;;;;;;11.90;7.57;;;13.70;99.90;;;;;;5032730;28;20637;-67
2022/06/09 01:49:22;;;;;;;10.53;7.53;;;13.70;99.90;;;;;;5034258;28;20249;-66
2022/06/09 01:51:50;;;;;;;8.07;7.10;;;13.70;99.90;;;;;;5032597;28;20266;-67
2022/06/09 01:54:20;;;;;;;11.83;7.70;;;13.70;99.90;;;;;;5034106;28;20159;-67
2022/06/09 01:56:56;;;;;;;10.03;7.83;;;13.70;99.90;;;;;;5034131;28;20764;-67
2022/06/09 01:59:35;;;;;;;12.93;8.03;;;13.70;99.90;;;;;;5034354;28;20543;-67
2022/06/09 02:02:18;;;;;;;13.40;8.07;;;13.60;99.90;;;;;;5032632;28;20481;-67
2022/06/09 02:04:48;;;;;;;10.93;8.10;;;13.60;99.90;;;;;;5033798;28;20676;-67
2022/06/09 02:07:15;;;;;;;17.07;7.63;;;13.60;99.90;;;;;;5033829;28;20224;-67
2022/06/09 02:09:41;;;;;;;8.43;7.57;;;13.60;99.90;;;;;;5034070;28;20187;-67
2022/06/09 02:12:10;;;;;;;21.73;8.53;;;13.60;99.90;;;;;;5033650;28;20171;-66
2022/06/09 02:14:37;;;;;;;11.97;8.27;;;13.60;99.90;;;;;;5033324;28;20537;-68
2022/06/09 02:17:05;;;;;;;9.83;7.97;;;13.50;99.90;;;;;;5033880;28;20604;-66
2022/06/09 02:19:31;;;;;;;14.67;8.37;;;13.50;99.90;;;;;;5032308;28;20175;-68
2022/06/09 02:21:57;;;;;;;19.57;8.10;;;13.60;99.90;;;;;;5033841;28;20646;-67
2022/06/09 02:24:23;;;;;;;9.97;7.33;;;13.60;99.90;;;;;;5032959;28;20199;-67
2022/06/09 02:26:48;;;;;;;14.20;8.70;;;13.60;99.90;;;;;;5033626;28;20326;-66
2022/06/09 02:29:14;;;;;;;11.13;7.30;;;13.70;99.90;;;;;;5033336;28;20671;-67
2022/06/09 02:31:40;;;;;;;12.63;7.53;;;13.70;99.90;;;;;;5032444;28;20175;-66
2022/06/09 02:34:06;;;;;;;12.47;8.57;;;13.80;99.90;;;;;;5032825;28;20638;-67
2022/06/09 02:36:32;;;;;;;12.53;7.77;;;13.80;99.90;;;;;;5033663;28;20282;-66
2022/06/09 02:38:57;;;;;;;19.37;8.50;;;13.80;99.90;;;;;;5032165;28;20611;-66
2022/06/09 02:41:23;;;;;;;12.40;8.10;;;13.90;99.90;;;;;;5028364;28;20191;-67
2022/06/09 02:43:48;;;;;;;10.20;8.37;;;13.90;99.90;;;;;;5012809;28;20195;-67
2022/06/09 02:46:14;;;;;;;17.17;8.30;;;13.90;99.90;;;;;;5013281;28;20550;-68
2022/06/09 02:48:41;;;;;;;12.00;7.33;;;13.90;99.90;;;;;;5013428;28;20258;-66
2022/06/09 02:51:27;;;;;;;12.43;7.67;;;13.90;99.90;;;;;;5030341;28;20182;-67
2022/06/09 02:53:58;;;;;;;13.07;7.63;;;13.90;99.90;;;;;;5032606;28;20179;-66
2022/06/09 02:56:24;;;;;;;14.70;9.53;;;13.90;99.90;;;;;;5032783;28;20286;-67
2022/06/09 02:58:50;;;;;;;11.73;9.27;;;13.90;99.90;;;;;;5031972;28;20696;-66
2022/06/09 03:01:16;;;;;;;15.43;8.90;;;13.90;99.90;;;;;;5032751;28;20650;-67
2022/06/09 03:03:42;;;;;;;13.97;8.90;;;13.90;99.90;;;;;;5032713;28;20222;-67
2022/06/09 03:06:08;;;;;;;11.87;9.20;;;13.90;99.90;;;;;;5031270;28;20199;-66
2022/06/09 03:08:34;;;;;;;13.93;9.20;;;13.90;99.90;;;;;;5032811;28;20293;-67
2022/06/09 03:11:00;;;;;;;16.83;9.27;;;13.90;99.90;;;;;;5033044;28;20175;-68
2022/06/09 03:13:27;;;;;;;11.00;8.47;;;13.90;99.90;;;;;;5032605;28;20187;-67
2022/06/09 03:15:53;;;;;;;17.97;8.80;;;13.90;99.90;;;;;;5032579;28;20183;-66
2022/06/09 03:18:19;;;;;;;16.47;10.10;;;13.90;99.90;;;;;;5032721;28;20183;-66
2022/06/09 03:20:46;;;;;;;13.73;9.43;;;13.90;99.90;;;;;;5032605;28;20655;-67
2022/06/09 03:23:12;;;;;;;22.90;10.33;;;13.90;99.90;;;;;;5032749;28;20172;-67
2022/06/09 03:25:37;;;;;;;15.87;9.03;;;13.90;99.90;;;;;;5032184;28;20249;-66
2022/06/09 03:28:04;;;;;;;15.57;9.17;;;13.90;99.90;;;;;;5032202;28;20690;-66
2022/06/09 03:30:30;;;;;;;20.67;8.50;;;13.90;99.90;;;;;;5032567;28;20171;-67
2022/06/09 03:32:56;;;;;;;14.43;9.80;;;13.80;99.90;;;;;;5032628;28;20220;-67
2022/06/09 03:35:21;;;;;;;11.77;8.83;;;13.80;99.90;;;;;;5031597;28;20698;-67
2022/06/09 03:37:47;;;;;;;12.10;9.97;;;13.80;99.90;;;;;;5032411;28;20171;-66
2022/06/09 03:40:15;;;;;;;15.37;9.73;;;13.70;99.90;;;;;;5031992;28;20168;-67
2022/06/09 03:42:41;;;;;;;10.30;9.03;;;13.70;99.90;;;;;;5032595;28;20544;-66
2022/06/09 03:45:08;;;;;;;15.33;10.00;;;13.70;99.90;;;;;;5031492;28;20196;-67
2022/06/09 03:47:33;;;;;;;17.13;9.60;;;13.70;99.90;;;;;;5032145;28;20238;-66
2022/06/09 03:49:59;;;;;;;13.47;9.33;;;13.80;99.90;;;;;;5031678;28;20678;-67
2022/06/09 03:52:24;;;;;;;15.53;9.80;;;13.80;99.90;;;;;;5031990;28;20180;-67
2022/06/09 03:54:50;;;;;;;19.87;9.77;;;13.80;99.90;;;;;;5031329;28;20171;-66
2022/06/09 03:57:16;;;;;;;16.77;9.93;;;13.90;99.90;;;;;;5031478;28;20258;-65
2022/06/09 03:59:41;;;;;;;12.43;9.77;;;13.90;99.90;;;;;;5031854;28;20224;-66
2022/06/09 04:02:07;;;;;;;15.03;10.23;;;14.00;99.90;;;;;;5031517;28;20183;-65
2022/06/09 04:04:32;;;;;;;13.47;9.70;;;14.10;99.90;;;;;;5031544;28;20511;-65
2022/06/09 04:06:59;;;;;;;14.60;9.40;;;14.10;99.90;;;;;;5031502;28;20219;-64
2022/06/09 04:09:25;;;;;;;12.97;9.20;;;14.20;99.90;;;;;;5031804;28;20195;-66
2022/06/09 04:11:51;;;;;;;19.63;9.00;;;14.30;99.90;;;;;;5031589;28;20262;-65
2022/06/09 04:14:17;;;;;;;18.10;10.27;;;14.30;99.90;;;;;;5031346;28;20310;-64
2022/06/09 04:16:47;;;;;;;18.50;8.70;;;14.30;99.90;;;;;;5031332;28;20681;-65
2022/06/09 04:19:16;;;;;;;19.27;8.80;;;14.20;99.90;;;;;;5031639;28;20214;-64
2022/06/09 04:21:43;;;;;;;23.03;9.50;;;14.30;99.90;;;;;;5031413;28;20716;-65
2022/06/09 04:24:09;;;;;;;16.07;9.40;;;14.30;99.90;;;;;;5031388;28;20250;-65
2022/06/09 04:26:37;;;;;;;13.10;8.90;;;14.30;99.90;;;;;;5091835;22;20224;-64
2022/06/09 04:29:06;;;;;;;15.63;9.40;;;14.30;99.90;;;;;;5091739;28;20197;-63
2022/06/09 04:31:32;;;;;;;12.30;9.13;;;14.30;99.90;;;;;;5090134;28;20634;-64
2022/06/09 04:33:58;;;;;;;16.23;9.13;;;14.40;99.90;;;;;;5091418;28;20535;-64
2022/06/09 04:36:24;;;;;;;15.60;9.90;;;14.40;99.90;;;;;;5084246;28;20197;-64
2022/06/09 04:38:49;;;;;;;17.90;8.37;;;14.40;99.90;;;;;;5071371;28;20170;-65
2022/06/09 04:41:16;;;;;;;13.20;8.03;;;14.40;99.90;;;;;;5076114;28;20220;-64
2022/06/09 04:43:44;;;;;;;19.67;9.23;;;14.50;99.90;;;;;;5091535;28;20165;-65
2022/06/09 04:46:12;;;;;;;17.03;9.10;;;14.60;99.90;;;;;;5087362;28;20289;-65
2022/06/09 04:48:38;;;;;;;18.83;9.03;;;14.60;99.90;;;;;;5069999;28;20263;-65
2022/06/09 04:51:12;;;;;;;12.47;8.07;;;14.70;99.90;;;;;;5073059;28;20522;-65
2022/06/09 04:53:39;;;;;;;16.37;8.50;;;14.80;99.90;;;;;;5090912;28;20644;-65
2022/06/09 04:56:06;;;;;;;17.73;8.50;;;14.90;99.90;;;;;;5089913;28;20676;-64
2022/06/09 04:58:32;;;;;;;14.83;9.00;;;14.90;99.90;;;;;;5091395;28;20260;-65
2022/06/09 05:00:57;;;;;;;17.77;10.10;;;14.90;99.90;;;;;;5072357;28;20703;-65
2022/06/09 05:03:23;;;;;;;12.23;9.63;;;14.90;99.90;;;;;;5070850;28;20174;-66
2022/06/09 05:05:50;;;;;;;22.63;9.93;;;14.90;99.90;;;;;;5087489;28;20197;-64
2022/06/09 05:08:17;;;;;;;16.77;8.90;;;14.90;99.90;;;;;;5094877;28;20249;-65
2022/06/09 05:10:45;;;;;;;18.60;9.47;;;14.80;99.90;;;;;;5079802;28;20189;-65
2022/06/09 05:13:12;;;;;;;15.57;8.77;;;14.80;99.90;;;;;;5074808;28;20174;-64
2022/06/09 05:15:50;;;;;;;18.20;9.87;;;14.90;99.90;;;;;;5088453;28;20197;-65
2022/06/09 05:18:17;;;;;;;12.50;8.97;;;14.90;99.90;;;;;;5081729;28;20182;-65
2022/06/09 05:20:43;;;;;;;17.80;9.70;;;15.00;99.90;;;;;;5078192;28;20517;-64
2022/06/09 05:23:09;;;;;;;23.33;9.90;;;15.10;99.90;;;;;;5095052;28;20272;-65
2022/06/09 05:25:34;;;;;;;16.73;9.77;;;15.10;99.90;;;;;;5091939;28;20205;-65
2022/06/09 05:28:00;;;;;;;17.67;9.07;;;15.10;99.90;;;;;;5074578;28;20230;-66
2022/06/09 05:30:26;;;;;;;13.70;9.33;;;15.10;99.90;;;;;;5075165;28;20593;-65
2022/06/09 05:32:52;;;;;;;16.87;9.27;;;15.20;99.90;;;;;;5094982;28;20256;-65
2022/06/09 05:35:19;;;;;;;23.67;10.43;;;15.20;99.90;;;;;;5094466;28;20214;-65
2022/06/09 05:46:00;;;;;;;15.33;9.87;;;15.60;99.90;;;;;;5061428;28;20343;-65
2022/06/09 05:48:26;;;;;;;12.83;9.13;;;15.70;99.90;;;;;;5094523;28;20292;-65
2022/06/09 05:50:52;;;;;;;15.60;9.00;;;15.80;99.90;;;;;;5093117;28;20169;-65
2022/06/09 05:53:18;;;;;;;17.03;9.47;;;15.90;99.90;;;;;;5074259;28;20583;-64
2022/06/09 05:55:44;;;;;;;20.53;9.70;;;16.00;99.90;;;;;;5072528;28;20190;-66
2022/06/09 05:58:10;;;;;;;13.97;9.70;;;16.00;99.90;;;;;;5075138;28;20551;-65
2022/06/09 06:00:36;;;;;;;23.07;10.43;;;16.10;99.90;;;;;;5074314;28;20167;-65
2022/06/09 06:03:03;;;;;;;19.57;9.00;;;16.20;99.90;;;;;;5092260;28;20188;-65
2022/06/09 06:08:12;;;;;;;9.80;8.80;;;16.40;99.90;;;;;;5074735;28;20209;-64
2022/06/09 06:10:38;;;;;;;10.33;9.13;;;16.40;99.90;;;;;;5074108;28;20162;-65
2022/06/09 06:13:04;;;;;;;14.43;9.93;;;16.30;99.90;;;;;;5090684;28;20188;-65
2022/06/09 06:15:29;;;;;;;13.50;9.33;;;16.40;99.90;;;;;;5093804;28;20193;-65
2022/06/09 06:17:55;;;;;;;17.20;9.30;;;16.40;99.90;;;;;;5078228;28;20182;-65
2022/06/09 06:20:21;;;;;;;15.37;9.57;;;16.40;99.90;;;;;;5073520;28;20174;-65
2022/06/09 06:22:47;;;;;;;13.37;9.20;;;16.40;99.90;;;;;;5087412;28;20209;-64
2022/06/09 06:25:14;;;;;;;21.80;9.83;;;16.40;99.90;;;;;;5082206;28;20247;-64
2022/06/09 06:27:41;;;;;;;13.43;9.53;;;16.40;99.90;;;;;;5073624;28;20233;-65
2022/06/09 06:30:07;;;;;;;16.20;8.60;;;16.40;99.90;;;;;;5082695;28;20169;-65
2022/06/09 06:32:33;;;;;;;15.47;9.13;;;16.40;99.90;;;;;;5093771;28;20166;-64
2022/06/09 06:34:59;;;;;;;9.50;8.07;;;16.30;99.90;;;;;;5091626;28;20265;-64
2022/06/09 06:37:25;;;;;;;10.97;8.67;;;16.40;99.90;;;;;;5093705;28;20235;-65
2022/06/09 06:39:51;;;;;;;19.37;9.23;;;16.40;99.90;;;;;;5083932;28;20170;-65
2022/06/09 06:42:16;;;;;;;12.93;9.37;;;16.50;99.90;;;;;;5073152;28;20174;-64
2022/06/09 06:44:42;;;;;;;12.00;9.17;;;16.40;99.90;;;;;;5076598;28;20512;-65
2022/06/09 06:47:07;;;;;;;20.23;10.47;;;16.50;99.90;;;;;;5081510;28;20194;-64
2022/06/09 06:49:33;;;;;;;14.83;9.83;;;16.50;99.90;;;;;;5073427;28;20250;-64
2022/06/09 06:51:58;;;;;;;13.40;9.67;;;16.40;99.90;;;;;;5074271;28;20539;-64
2022/06/09 06:54:24;;;;;;;16.87;10.40;;;16.40;99.90;;;;;;5093016;28;20177;-70
2022/06/09 06:56:50;;;;;;;15.90;10.00;;;16.40;99.90;;;;;;5093275;28;20648;-63
2022/06/09 06:59:15;;;;;;;12.80;9.57;;;16.40;99.90;;;;;;5073271;28;20178;-65
2022/06/09 07:01:41;;;;;;;15.77;10.37;;;16.60;99.90;;;;;;5073104;28;20178;-65
2022/06/09 07:04:06;;;;;;;14.47;10.63;;;16.60;99.90;;;;;;5089868;28;20185;-64
2022/06/09 07:06:32;;;;;;;19.30;11.00;;;16.50;99.90;;;;;;5093178;28;20276;-64
2022/06/09 07:08:58;;;;;;;17.27;9.93;;;16.70;99.90;;;;;;5076544;28;20202;-64
2022/06/09 07:11:23;;;;;;;14.90;9.97;;;16.90;99.90;;;;;;5072375;28;20652;-65
2022/06/09 07:13:49;;;;;;;12.47;9.40;;;17.20;99.90;;;;;;5086013;28;20252;-65
2022/06/09 07:16:15;;;;;;;11.93;9.23;;;17.10;99.90;;;;;;5092671;28;20264;-65
2022/06/09 07:18:41;;;;;;;13.27;9.10;;;17.10;99.90;;;;;;5091299;28;20178;-65
2022/06/09 07:21:07;;;;;;;12.03;9.83;;;17.20;99.90;;;;;;5084775;28;20213;-64
2022/06/09 07:23:33;;;;;;;15.23;9.20;;;17.30;99.90;;;;;;5076027;28;20235;-63
2022/06/09 07:26:00;;;;;;;14.70;8.93;;;17.60;99.90;;;;;;5057599;28;20306;-65
2022/06/09 07:28:27;;;;;;;13.57;10.67;;;17.80;99.90;;;;;;5052508;28;20207;-64
2022/06/09 07:30:56;;;;;;;12.20;9.17;;;17.90;99.90;;;;;;5051473;28;20250;-65
2022/06/09 07:33:24;;;;;;;16.40;9.13;;;18.00;99.90;;;;;;5063567;28;20180;-65
2022/06/09 07:35:51;;;;;;;14.73;9.67;;;18.00;99.90;;;;;;5072149;28;20190;-65
2022/06/09 07:38:18;;;;;;;13.60;9.73;;;18.10;99.90;;;;;;5071253;28;20174;-64
2022/06/09 07:40:43;;;;;;;11.40;10.30;;;18.20;99.90;;;;;;5072312;28;20232;-64
2022/06/09 07:43:10;;;;;;;16.53;9.50;;;18.50;99.90;;;;;;5072023;28;20178;-64
2022/06/09 07:45:37;;;;;;;16.43;10.10;;;18.50;99.90;;;;;;5071964;28;20186;-64
2022/06/09 07:48:04;;;;;;;16.57;10.03;;;18.30;99.90;;;;;;5071847;28;20198;-64
2022/06/09 07:50:31;;;;;;;16.40;11.33;;;18.00;99.90;;;;;;5072313;28;20166;-64
2022/06/09 07:52:57;;;;;;;12.87;10.47;;;17.70;99.90;;;;;;5072102;28;20249;-65
2022/06/09 07:55:22;;;;;;;15.83;9.50;;;17.70;99.90;;;;;;5071568;28;20317;-65
2022/06/09 07:57:48;;;;;;;11.00;9.73;;;17.60;99.90;;;;;;5071669;28;20705;-65
2022/06/09 08:00:15;;;;;;;15.43;10.13;;;17.40;99.90;;;;;;5071799;28;20645;-64
2022/06/09 08:02:42;;;;;;;19.87;10.50;;;17.40;99.90;;;;;;5072223;28;20235;-64
2022/06/09 08:05:09;;;;;;;16.47;10.83;;;17.30;99.90;;;;;;5071354;28;20174;-64
2022/06/09 08:07:35;;;;;;;17.63;10.83;;;17.40;99.90;;;;;;5072341;28;20613;-64
2022/06/09 08:10:00;;;;;;;15.53;9.93;;;17.40;99.90;;;;;;5071695;28;20241;-65
2022/06/09 08:12:26;;;;;;;11.30;9.97;;;17.50;99.90;;;;;;5084621;28;20248;-64
2022/06/09 08:14:52;;;;;;;11.33;10.00;;;17.40;99.90;;;;;;5084881;28;20215;-65
2022/06/09 08:17:17;;;;;;;12.83;10.17;;;17.40;99.90;;;;;;5090886;28;20212;-66
2022/06/09 08:19:45;;;;;;;17.20;10.67;;;17.40;99.90;;;;;;5075648;28;20193;-65
2022/06/09 08:22:11;;;;;;;14.80;10.47;;;17.40;99.90;;;;;;5071729;28;20556;-65
2022/06/09 08:24:36;;;;;;;14.97;9.93;;;17.30;99.90;;;;;;5085440;28;20359;-64
2022/06/09 08:27:02;;;;;;;17.40;11.07;;;17.20;99.90;;;;;;5091581;28;20205;-65
2022/06/09 08:29:29;;;;;;;14.50;10.10;;;17.20;99.90;;;;;;5089829;28;20660;-65
2022/06/09 08:31:55;;;;;;;15.17;10.20;;;17.30;99.90;;;;;;5091519;28;20165;-65
2022/06/09 08:34:21;;;;;;;13.70;11.00;;;17.30;99.90;;;;;;5079814;28;20652;-65
2022/06/09 08:36:46;;;;;;;9.93;9.10;;;17.50;99.90;;;;;;5071292;28;20227;-64
2022/06/09 08:39:12;;;;;;;13.40;10.17;;;17.60;99.90;;;;;;5079940;28;20169;-65
2022/06/09 08:42:19;;;;;;;14.30;10.90;;;17.90;99.90;;;;;;5091234;28;20238;-66
2022/06/09 08:44:53;;;;;;;15.70;11.07;;;18.10;99.90;;;;;;5077782;28;20668;-65
2022/06/09 08:47:25;;;;;;;16.83;10.57;;;17.90;99.90;;;;;;5083080;28;20207;-65
2022/06/09 08:50:20;;;;;;;13.13;11.10;;;17.70;99.90;;;;;;5091718;28;20177;-67
2022/06/09 08:53:05;;;;;;;13.70;9.47;;;17.80;99.90;;;;;;5089862;28;20217;-67
2022/06/09 08:55:45;;;;;;;11.57;9.73;;;17.90;99.90;;;;;;5090980;28;20185;-66
2022/06/09 08:58:16;;;;;;;11.13;9.20;;;18.20;99.90;;;;;;5072409;28;20173;-66
2022/06/09 09:01:03;;;;;;;12.70;9.77;;;18.40;99.90;;;;;;5071212;28;20285;-66
2022/06/09 09:03:38;;;;;;;9.00;8.20;;;18.60;99.90;;;;;;5088855;28;20177;-67
2022/06/09 09:06:07;;;;;;;9.13;8.00;;;18.80;99.90;;;;;;5090899;28;20192;-66
2022/06/09 09:08:35;;;;;;;9.47;8.30;;;19.10;99.90;;;;;;5051100;28;20210;-66
2022/06/09 09:11:20;;;;;;;10.37;7.63;;;19.20;99.90;;;;;;5051053;28;20163;-66
2022/06/09 09:14:06;;;;;;;10.13;7.60;;;19.30;99.90;;;;;;5050917;28;20220;-66
2022/06/09 09:16:46;;;;;;;12.60;7.67;;;19.50;99.90;;;;;;5056282;28;20201;-67
2022/06/09 09:19:31;;;;;;;16.33;8.57;;;19.50;99.90;;;;;;5091090;28;20180;-66
2022/06/09 09:22:03;;;;;;;14.93;9.33;;;19.40;99.90;;;;;;5071643;28;20190;-65
2022/06/09 09:24:57;;;;;;;8.93;7.90;;;19.10;99.90;;;;;;5071750;28;20583;-67
2022/06/09 09:27:32;;;;;;;9.47;8.00;;;19.30;99.90;;;;;;5069513;28;20297;-67
2022/06/09 09:30:17;;;;;;;13.03;7.40;;;19.40;99.90;;;;;;5091019;28;20671;-67
2022/06/09 09:32:46;;;;;;;11.27;7.80;;;19.50;99.90;;;;;;5089391;28;20226;-66
2022/06/09 09:35:19;;;;;;;12.70;8.50;;;19.50;99.90;;;;;;5090597;28;20166;-67
2022/06/09 09:37:51;;;;;;;13.17;7.50;;;19.40;99.90;;;;;;5079743;28;20178;-67
2022/06/09 09:40:31;;;;;;;9.00;7.90;;;19.40;99.90;;;;;;5070944;28;20657;-67
2022/06/09 09:43:02;;;;;;;10.43;8.07;;;19.60;99.90;;;;;;5071885;28;20540;-67
2022/06/09 09:45:38;;;;;;;7.80;6.90;;;20.00;99.90;;;;;;5070451;28;20237;-67
2022/06/09 09:48:26;;;;;;;9.77;6.50;;;20.70;99.90;;;;;;5082640;28;20189;-67
2022/06/09 09:51:11;;;;;;;7.17;5.97;;;21.50;99.90;;;;;;5090980;28;20701;-66
2022/06/09 09:53:54;;;;;;;8.80;6.43;;;21.70;99.90;;;;;;5074964;28;20196;-67
2022/06/09 09:56:19;;;;;;;6.93;5.32;;;21.80;99.90;;;;;;5074062;28;20544;-66
2022/06/09 09:58:48;;;;;;;8.23;5.90;;;22.00;99.90;;;;;;5091117;28;20185;-67
2022/06/09 10:01:16;;;;;;;9.40;5.50;;;22.10;99.90;;;;;;5094381;28;20265;-66
2022/06/09 10:09:43;;;;;;;10.17;6.73;;;20.90;99.90;;;;;;5053209;28;20201;-67
2022/06/09 10:12:18;;;;;;;10.87;8.13;;;20.50;99.90;;;;;;5092786;28;20648;-67
2022/06/09 10:14:50;;;;;;;8.87;7.70;;;20.20;99.90;;;;;;5094058;28;20195;-66
2022/06/09 10:17:58;;;;;;;10.17;6.60;;;20.30;99.90;;;;;;5073890;28;20224;-67
2022/06/09 10:20:43;;;;;;;7.30;5.77;;;21.00;99.90;;;;;;5073912;28;20212;-66
2022/06/09 10:23:17;;;;;;;5.43;4.43;;;22.00;99.90;;;;;;5093990;28;20599;-67
2022/06/09 10:25:59;;;;;;;5.55;5.05;;;22.70;99.90;;;;;;5111016;22;21351;-65
2022/06/09 10:28:47;;;;;;;6.80;5.15;;;22.90;99.90;;;;;;5053522;28;20210;-65
2022/06/09 10:31:44;;;;;;;9.07;5.05;;;22.70;99.90;;;;;;5053551;28;20201;-64
2022/06/09 10:34:22;;;;;;;5.77;4.70;;;22.20;99.90;;;;;;5053097;28;20175;-65
2022/06/09 10:37:47;;;;;;;7.10;4.90;;;21.50;99.90;;;;;;5053250;28;20226;-64
2022/06/09 10:40:44;;;;;;;6.23;5.50;;;21.00;99.90;;;;;;4991388;28;20184;-65
2022/06/09 10:43:24;;;;;;;10.47;5.40;;;20.40;99.90;;;;;;4991466;28;20671;-65
2022/06/09 10:46:13;;;;;;;9.43;5.97;;;20.20;99.90;;;;;;5039001;28;20336;-65
2022/06/09 10:55:15;;;;;;;9.77;4.90;;;20.80;99.90;;;;;;5051791;28;20213;-64
2022/06/09 10:58:08;;;;;;;7.93;4.70;;;21.70;99.90;;;;;;5052914;28;20210;-65
2022/06/09 11:00:40;;;;;;;9.80;4.30;;;22.40;99.90;;;;;;5053102;28;20171;-65
2022/06/09 11:03:17;;;;;;;7.78;4.88;;;22.90;99.90;;;;;;5033072;28;20638;-64
2022/06/09 11:05:45;;;;;;;6.78;4.47;;;23.20;99.90;;;;;;5033524;28;20195;-65
2022/06/09 11:08:48;;;;;;;8.77;4.10;;;23.50;99.90;;;;;;5052787;28;20509;-65
2022/06/09 11:11:19;;;;;;;4.85;4.00;;;24.30;99.90;;;;;;5052971;28;20221;-65
2022/06/09 11:13:55;;;;;;;8.43;4.82;;;24.60;99.90;;;;;;5051978;28;20662;-65
2022/06/09 11:16:46;;;;;;;6.97;4.75;;;24.40;99.90;;;;;;5052666;28;20538;-66
2022/06/09 11:19:33;;;;;;;5.15;4.18;;;24.10;99.90;;;;;;5052475;28;20174;-65
2022/06/09 11:22:13;;;;;;;6.47;4.30;;;24.30;99.90;;;;;;5051198;28;20182;-64
2022/06/09 11:24:58;;;;;;;6.85;4.13;;;24.50;99.90;;;;;;5052044;28;20224;-65
2022/06/09 11:27:46;;;;;;;6.45;4.38;;;24.90;99.90;;;;;;5051796;28;20626;-64
2022/06/09 11:30:45;;;;;;;5.72;4.30;;;24.90;99.90;;;;;;5052103;28;20199;-65
2022/06/09 11:33:14;;;;;;;9.90;4.28;;;24.90;99.90;;;;;;5052184;28;20179;-65
2022/06/09 11:35:54;;;;;;;5.60;4.20;;;25.20;99.90;;;;;;5052105;28;20181;-65
2022/06/09 11:38:51;;;;;;;6.50;4.65;;;24.50;99.90;;;;;;5052015;28;20584;-65
2022/06/09 11:41:58;;;;;;;5.65;4.60;;;23.10;99.90;;;;;;5052397;28;20642;-65
2022/06/09 11:44:35;;;;;;;8.75;4.85;;;22.50;99.90;;;;;;5051094;28;20558;-65
2022/06/09 11:47:11;;;;;;;7.15;4.93;;;22.30;99.90;;;;;;5052344;28;20202;-65
2022/06/09 11:49:47;;;;;;;9.23;5.60;;;22.10;99.90;;;;;;5051843;28;20209;-65
2022/06/09 11:52:28;;;;;;;8.57;6.70;;;21.60;99.90;;;;;;5051859;28;20257;-64
2022/06/09 11:54:57;;;;;;;11.10;7.97;;;20.90;99.90;;;;;;5051484;28;20201;-65
2022/06/09 11:57:40;;;;;;;9.70;7.33;;;20.40;99.90;;;;;;5049706;28;20241;-64
2022/06/09 12:00:34;;;;;;;10.03;6.63;;;20.30;99.90;;;;;;5051902;28;20240;-65
2022/06/09 12:03:18;;;;;;;8.77;6.50;;;20.00;99.90;;;;;;5050137;28;20229;-65
2022/06/09 12:06:00;;;;;;;11.20;6.97;;;19.70;99.90;;;;;;5051799;28;20203;-65
2022/06/09 12:08:54;;;;;;;8.43;6.67;;;19.60;99.90;;;;;;5051445;28;20210;-65
2022/06/09 12:11:23;;;;;;;8.63;7.33;;;19.70;99.90;;;;;;5051595;28;20179;-65
2022/06/09 12:13:58;;;;;;;7.57;5.93;;;19.60;99.90;;;;;;5050688;28;20608;-64
2022/06/09 12:16:32;;;;;;;6.53;5.93;;;19.60;99.90;;;;;;5050919;28;20202;-64
2022/06/09 12:19:05;;;;;;;10.03;6.70;;;19.30;99.90;;;;;;5051629;28;20232;-64
2022/06/09 12:21:35;;;;;;;10.03;5.90;;;18.90;99.90;;;;;;5051832;28;20207;-65
2022/06/09 12:24:03;;;;;;;7.10;6.60;;;18.10;99.90;;;;;;5051194;28;20175;-65
2022/06/09 12:26:42;;;;;;;9.60;6.40;;;17.10;99.90;;;;;;5051377;28;20218;-65
2022/06/09 12:29:20;;;;;;;9.63;7.30;;;16.60;99.90;;;;;;5051247;28;20203;-65
2022/06/09 12:32:08;;;;;;;11.40;7.30;;;16.40;99.90;;;;;;5051727;28;20567;-65
2022/06/09 12:34:46;;;;;;;14.50;8.27;;;16.50;99.90;;;;;;5051150;28;20177;-65
2022/06/09 12:37:31;;;;;;;17.60;8.53;;;16.70;99.90;;;;;;5051291;28;20228;-65
2022/06/09 12:40:07;;;;;;;16.40;8.50;;;17.00;99.90;;;;;;5051282;28;20175;-65
2022/06/09 12:43:12;;;;;;;12.97;9.20;;;17.20;99.90;;;;;;5051376;28;20254;-65
2022/06/09 12:45:38;;;;;;;12.53;8.30;;;17.60;99.90;;;;;;5050754;28;20178;-65
2022/06/09 12:48:12;;;;;;;8.63;7.50;;;17.90;99.90;;;;;;5051030;28;20210;-65
2022/06/09 12:50:41;;;;;;;8.57;6.57;;;18.30;99.90;;;;;;5051125;28;20170;-66
2022/06/09 12:53:14;;;;;;;7.17;6.50;;;18.50;99.90;;;;;;5051375;28;20523;-65
2022/06/09 12:55:46;;;;;;;6.10;5.33;;;18.70;99.90;;;;;;5050903;28;20265;-65
2022/06/09 12:58:29;;;;;;;5.77;5.47;;;18.10;99.90;;;;;;5051031;28;20175;-65
2022/06/09 13:01:01;;;;;;;6.03;5.63;;;17.70;99.90;;;;;;5050583;28;20263;-65
2022/06/09 13:03:29;;;;;;;5.57;5.27;;;17.30;99.90;;;;;;5050449;28;20179;-65
2022/06/09 13:05:55;;;;;;;5.80;5.40;;;17.10;99.90;;;;;;5051033;28;20563;-65
2022/06/09 13:08:25;;;;;;;5.73;5.33;;;16.90;99.90;;;;;;5050673;28;20603;-64
2022/06/09 13:11:00;;;;;;;5.50;5.00;;;16.70;99.90;;;;;;5051107;28;20198;-64
2022/06/09 13:13:46;;;;;;;6.10;5.47;;;16.80;99.90;;;;;;5050872;28;20633;-64
2022/06/09 13:16:14;;;;;;;6.30;5.80;;;17.00;99.90;;;;;;5050459;28;20216;-65
2022/06/09 13:18:44;;;;;;;5.43;5.13;;;17.10;99.90;;;;;;5050725;28;20539;-65
2022/06/09 13:21:39;;;;;;;6.60;6.00;;;17.10;99.90;;;;;;5050455;28;20540;-65
2022/06/09 13:24:17;;;;;;;6.17;5.67;;;17.00;99.90;;;;;;5041045;28;20201;-64
2022/06/09 13:26:44;;;;;;;6.07;5.47;;;17.10;99.90;;;;;;5050878;28;20576;-64